createdAt,value
2023-12-11T00:00:44.149Z,16.93
2023-12-11T00:04:51.558Z,30.03
2023-12-11T00:08:56.287Z,16.70
2023-12-11T00:13:01.116Z,20.07
2023-12-11T00:17:06.183Z,28.00
2023-12-11T00:21:13.569Z,20.33
2023-12-11T00:25:18.465Z,22.90
2023-12-11T00:29:23.231Z,22.73
2023-12-11T00:33:28.052Z,21.40
2023-12-11T00:37:35.368Z,21.83
2023-12-11T00:41:40.795Z,15.20
2023-12-11T00:45:45.556Z,20.43
2023-12-11T00:49:51.545Z,27.53
2023-12-11T00:53:58.958Z,20.20
2023-12-11T00:58:04.464Z,19.87
2023-12-11T01:02:09.197Z,22.63
2023-12-11T01:06:14.022Z,21.37
2023-12-11T01:10:21.347Z,23.90
2023-12-11T01:14:26.111Z,27.07
2023-12-11T01:18:31.035Z,16.80
2023-12-11T01:22:35.841Z,17.37
2023-12-11T01:26:43.297Z,22.30
2023-12-11T01:30:48.041Z,24.13
2023-12-11T01:34:52.874Z,23.27
2023-12-11T01:38:57.630Z,21.87
2023-12-11T01:43:19.048Z,26.03
2023-12-11T01:47:24.630Z,22.87
2023-12-11T01:51:29.606Z,34.70
2023-12-11T01:55:37.037Z,24.87
2023-12-11T01:59:47.520Z,27.73
2023-12-11T02:03:54.906Z,22.60
2023-12-11T02:08:00.130Z,24.30
2023-12-11T02:12:06.608Z,24.13
2023-12-11T02:16:17.913Z,23.80
2023-12-11T02:20:22.646Z,25.83
2023-12-11T02:24:32.090Z,24.67
2023-12-11T02:28:39.467Z,22.03
2023-12-11T02:32:44.210Z,28.50
2023-12-11T02:36:49.466Z,29.73
2023-12-11T02:40:54.306Z,29.13
2023-12-11T02:45:01.695Z,30.63
2023-12-11T02:49:06.507Z,22.87
2023-12-11T02:53:11.995Z,24.63
2023-12-11T02:57:18.228Z,23.53
2023-12-11T03:01:25.871Z,27.43
2023-12-11T03:05:30.709Z,19.17
2023-12-11T03:09:35.555Z,20.50
2023-12-11T03:13:40.318Z,18.63
2023-12-11T03:17:49.866Z,25.77
2023-12-11T03:21:57.117Z,24.17
2023-12-11T03:26:01.988Z,17.67
2023-12-11T03:30:07.298Z,22.70
2023-12-11T03:34:14.929Z,22.37
2023-12-11T03:38:19.707Z,23.03
2023-12-11T03:42:24.477Z,26.90
2023-12-11T03:46:29.245Z,28.63
2023-12-11T03:50:36.588Z,21.73
2023-12-11T03:54:41.414Z,18.13
2023-12-11T03:58:46.314Z,21.37
2023-12-11T04:02:52.326Z,21.30
2023-12-11T04:06:59.714Z,14.70
2023-12-11T04:11:04.486Z,25.63
2023-12-11T04:15:10.573Z,21.90
2023-12-11T04:19:15.629Z,26.67
2023-12-11T04:23:23.002Z,21.20
2023-12-11T04:27:27.896Z,16.93
2023-12-11T04:31:32.690Z,13.80
2023-12-11T04:35:37.381Z,10.10
2023-12-11T04:39:44.841Z,8.70
2023-12-11T04:43:51.859Z,9.43
2023-12-11T04:47:56.702Z,17.03
2023-12-11T04:52:01.535Z,11.30
2023-12-11T04:56:12.739Z,11.17
2023-12-11T05:00:18.919Z,12.33
2023-12-11T05:04:23.782Z,11.83
2023-12-11T05:08:30.449Z,10.97
2023-12-11T05:12:38.176Z,11.93
2023-12-11T05:16:42.864Z,18.77
2023-12-11T05:20:47.709Z,12.73
2023-12-11T05:24:52.591Z,18.83
2023-12-11T05:29:01.734Z,14.77
2023-12-11T05:33:06.798Z,10.57
2023-12-11T05:37:11.669Z,14.70
2023-12-11T05:41:16.633Z,15.53
2023-12-11T05:45:24.055Z,12.53
2023-12-11T05:49:28.875Z,18.20
2023-12-11T05:53:33.670Z,14.97
2023-12-11T05:57:38.520Z,10.87
2023-12-11T06:01:46.025Z,13.93
2023-12-11T06:05:52.592Z,21.27
2023-12-11T06:09:57.389Z,17.00
2023-12-11T06:14:02.246Z,22.50
2023-12-11T06:18:11.193Z,18.67
2023-12-11T06:22:16.088Z,19.43
2023-12-11T06:26:32.700Z,15.00
2023-12-11T06:30:37.705Z,18.70
2023-12-11T06:34:45.230Z,19.90
2023-12-11T06:38:51.285Z,18.17
2023-12-11T06:42:56.055Z,18.73
2023-12-11T06:47:00.918Z,15.83
2023-12-11T06:51:08.432Z,21.87
2023-12-11T06:55:13.240Z,18.70
2023-12-11T06:59:18.000Z,16.47
2023-12-11T07:03:22.819Z,23.47
2023-12-11T07:07:30.493Z,20.60
2023-12-11T07:11:35.487Z,20.67
2023-12-11T07:15:40.379Z,17.13
2023-12-11T07:19:45.188Z,13.77
2023-12-11T07:23:53.388Z,12.70
2023-12-11T07:27:58.216Z,18.93
2023-12-11T07:32:02.951Z,20.60
2023-12-11T07:36:08.799Z,15.60
2023-12-11T07:40:16.469Z,17.67
2023-12-11T07:44:21.796Z,15.57
2023-12-11T07:48:26.651Z,16.33
2023-12-11T07:52:32.193Z,10.67
2023-12-11T07:56:39.635Z,14.13
2023-12-11T08:00:44.443Z,15.67
2023-12-11T08:04:49.776Z,13.50
2023-12-11T08:08:54.707Z,14.23
2023-12-11T08:13:02.076Z,15.63
2023-12-11T08:17:12.067Z,16.50
2023-12-11T08:21:17.863Z,10.73
2023-12-11T08:25:23.223Z,13.80
2023-12-11T08:29:30.575Z,14.27
2023-12-11T08:33:35.425Z,13.30
2023-12-11T08:37:40.439Z,12.73
2023-12-11T08:41:45.269Z,11.73
2023-12-11T08:45:52.609Z,11.83
2023-12-11T08:50:00.478Z,15.97
2023-12-11T08:54:05.381Z,11.37
2023-12-11T08:58:10.468Z,9.87
2023-12-11T09:02:17.998Z,12.10
2023-12-11T09:06:24.334Z,9.37
2023-12-11T09:10:29.179Z,10.77
2023-12-11T09:14:33.946Z,8.03
2023-12-11T09:18:41.479Z,6.07
2023-12-11T09:22:47.517Z,5.93
2023-12-11T09:26:52.200Z,7.93
2023-12-11T09:30:56.983Z,10.93
2023-12-11T09:35:04.437Z,9.77
2023-12-11T09:39:09.461Z,7.63
2023-12-11T09:43:14.357Z,7.13
2023-12-11T09:47:23.994Z,7.67
2023-12-11T09:51:31.394Z,5.80
2023-12-11T09:55:36.178Z,8.50
2023-12-11T09:59:41.633Z,4.80
2023-12-11T10:03:46.555Z,5.53
2023-12-11T10:07:54.074Z,5.47
2023-12-11T10:12:04.605Z,2.50
2023-12-11T10:16:30.918Z,6.10
2023-12-11T10:20:36.759Z,4.13
2023-12-11T10:24:48.443Z,14.77
2023-12-11T10:28:53.188Z,6.67
2023-12-11T10:33:04.365Z,7.37
2023-12-11T10:37:09.776Z,10.47
2023-12-11T10:41:29.413Z,7.83
2023-12-11T10:45:35.523Z,10.53
2023-12-11T10:49:40.972Z,11.87
2023-12-11T10:53:48.454Z,9.53
2023-12-11T10:57:57.446Z,7.43
2023-12-11T11:02:04.320Z,9.97
2023-12-11T11:06:11.039Z,8.80
2023-12-11T11:10:22.565Z,7.77
2023-12-11T11:14:51.471Z,5.57
2023-12-11T11:19:10.483Z,10.07
2023-12-11T11:23:28.492Z,8.73
2023-12-11T11:27:43.997Z,9.90
2023-12-11T11:31:55.759Z,8.77
2023-12-11T11:36:05.668Z,8.63
2023-12-11T11:40:12.233Z,9.53
2023-12-11T11:44:18.791Z,12.23
2023-12-11T11:48:44.102Z,12.47
2023-12-11T11:52:52.211Z,10.27
2023-12-11T11:56:57.488Z,12.17
2023-12-11T12:01:07.451Z,9.63
2023-12-11T12:05:15.583Z,9.73
2023-12-11T12:09:21.556Z,8.57
2023-12-11T12:13:28.690Z,4.03
2023-12-11T12:17:34.157Z,9.13
2023-12-11T12:21:55.587Z,11.00
2023-12-11T12:26:01.773Z,11.13
2023-12-11T12:30:07.499Z,8.20
2023-12-11T12:34:12.643Z,6.17
2023-12-11T12:38:20.620Z,6.27
2023-12-11T12:42:25.502Z,6.20
2023-12-11T12:46:30.794Z,5.10
2023-12-11T12:50:35.599Z,3.43
2023-12-11T12:54:57.840Z,5.40
2023-12-11T12:59:06.952Z,6.50
2023-12-11T13:03:11.730Z,3.67
2023-12-11T13:07:18.626Z,6.37
2023-12-11T13:11:41.828Z,4.67
2023-12-11T13:15:46.605Z,4.97
2023-12-11T13:19:51.652Z,4.73
2023-12-11T13:23:58.338Z,2.10
2023-12-11T13:28:07.513Z,2.17
2023-12-11T13:32:14.234Z,3.00
2023-12-11T13:36:19.224Z,2.23
2023-12-11T13:40:24.787Z,1.47
2023-12-11T13:44:32.206Z,2.67
2023-12-11T13:48:38.266Z,1.67
2023-12-11T13:52:43.101Z,1.13
2023-12-11T13:56:49.206Z,2.30
2023-12-11T14:00:56.878Z,1.47
2023-12-11T14:05:01.816Z,1.97
2023-12-11T14:09:07.119Z,5.20
2023-12-11T14:13:14.741Z,2.40
2023-12-11T14:17:22.143Z,5.00
2023-12-11T14:21:26.925Z,1.70
2023-12-11T14:25:32.185Z,2.77
2023-12-11T14:29:37.019Z,5.07
2023-12-11T14:33:44.763Z,2.33
2023-12-11T14:37:49.677Z,2.43
2023-12-11T14:41:55.376Z,2.43
2023-12-11T14:46:00.851Z,1.90
2023-12-11T14:50:09.823Z,1.70
2023-12-11T14:54:14.898Z,3.83
2023-12-11T14:58:19.700Z,4.60
2023-12-11T15:02:24.569Z,4.40
2023-12-11T15:06:32.065Z,4.33
2023-12-11T15:10:36.841Z,2.50
2023-12-11T15:14:41.571Z,2.47
2023-12-11T15:18:48.115Z,3.50
2023-12-11T15:22:57.072Z,2.80
2023-12-11T15:27:01.806Z,1.63
2023-12-11T15:31:13.301Z,1.23
2023-12-11T15:35:19.647Z,2.33
2023-12-11T15:39:26.930Z,2.97
2023-12-11T15:43:31.702Z,2.90
2023-12-11T15:47:59.861Z,2.90
2023-12-11T15:52:01.285Z,6.83
2023-12-11T15:56:09.485Z,2.10
2023-12-11T16:00:15.501Z,2.30
2023-12-11T16:04:20.257Z,2.60
2023-12-11T16:08:25.376Z,2.50
2023-12-11T16:12:32.771Z,3.90
2023-12-11T16:16:40.058Z,4.30
2023-12-11T16:20:45.596Z,2.13
2023-12-11T16:24:50.417Z,2.17
2023-12-11T16:28:57.808Z,2.30
2023-12-11T16:33:02.797Z,2.07
2023-12-11T16:37:08.062Z,5.17
2023-12-11T16:41:13.511Z,6.13
2023-12-11T16:45:21.181Z,5.50
2023-12-11T16:49:26.070Z,4.67
2023-12-11T16:53:30.841Z,4.53
2023-12-11T16:57:35.624Z,3.27
2023-12-11T17:01:43.077Z,8.07
2023-12-11T17:05:47.975Z,9.67
2023-12-11T17:09:55.024Z,7.03
2023-12-11T17:13:59.789Z,9.80
2023-12-11T17:18:08.215Z,16.53
2023-12-11T17:22:13.042Z,15.90
2023-12-11T17:26:17.890Z,15.50
2023-12-11T17:30:22.864Z,12.53
2023-12-11T17:34:30.557Z,10.20
2023-12-11T17:38:35.422Z,7.03
2023-12-11T17:42:40.312Z,8.40
2023-12-11T17:46:47.952Z,11.70
2023-12-11T17:50:55.298Z,6.97
2023-12-11T17:55:00.100Z,7.40
2023-12-11T17:59:04.891Z,10.10
2023-12-11T18:03:09.639Z,9.30
2023-12-11T18:07:17.078Z,5.90
2023-12-11T18:11:21.786Z,7.60
2023-12-11T18:15:26.668Z,7.70
2023-12-11T18:19:31.501Z,7.27
2023-12-11T18:23:39.549Z,6.57
2023-12-11T18:27:44.322Z,6.37
2023-12-11T18:31:49.090Z,6.10
2023-12-11T18:35:53.862Z,5.03
2023-12-11T18:40:01.439Z,9.93
2023-12-11T18:44:06.224Z,6.43
2023-12-11T18:48:12.144Z,9.67
2023-12-11T18:52:18.708Z,5.80
2023-12-11T18:56:27.409Z,16.33
2023-12-11T19:00:32.246Z,10.87
2023-12-11T19:04:37.524Z,10.27
2023-12-11T19:08:42.403Z,10.80
2023-12-11T19:12:50.623Z,9.73
2023-12-11T19:16:55.517Z,8.90
2023-12-11T19:21:00.223Z,6.87
2023-12-11T19:25:04.974Z,6.60
2023-12-11T19:29:12.478Z,15.67
2023-12-11T19:33:17.608Z,13.00
2023-12-11T19:37:22.645Z,7.00
2023-12-11T19:41:27.399Z,14.13
2023-12-11T19:45:34.894Z,19.03
2023-12-11T19:49:39.655Z,13.83
2023-12-11T19:53:44.552Z,9.80
2023-12-11T19:57:49.380Z,9.73
2023-12-11T20:01:56.813Z,11.47
2023-12-11T20:06:01.670Z,10.23
2023-12-11T20:10:08.303Z,16.43
2023-12-11T20:14:13.195Z,11.93
2023-12-11T20:18:20.585Z,15.30
2023-12-11T20:22:25.653Z,16.53
2023-12-11T20:26:30.397Z,16.90
2023-12-11T20:30:35.248Z,10.80
2023-12-11T20:34:43.365Z,12.77
2023-12-11T20:38:48.582Z,14.20
2023-12-11T20:42:53.597Z,13.17
2023-12-11T20:46:58.452Z,28.40
2023-12-11T20:51:09.512Z,16.40
2023-12-11T20:55:14.665Z,13.80
2023-12-11T20:59:19.459Z,12.23
2023-12-11T21:03:24.293Z,12.57
2023-12-11T21:07:31.862Z,13.50
2023-12-11T21:11:38.093Z,11.93
2023-12-11T21:15:43.047Z,9.53
2023-12-11T21:19:47.806Z,9.43
2023-12-11T21:23:55.303Z,12.53
2023-12-11T21:28:00.083Z,7.60
2023-12-11T21:32:05.643Z,7.53
2023-12-11T21:36:10.896Z,9.33
2023-12-11T21:40:18.993Z,10.90
2023-12-11T21:44:23.984Z,9.33
2023-12-11T21:48:28.821Z,10.80
2023-12-11T21:52:33.669Z,11.37
2023-12-11T21:56:42.267Z,9.73
2023-12-11T22:00:47.056Z,10.40
2023-12-11T22:04:52.013Z,12.73
2023-12-11T22:08:56.917Z,15.30
2023-12-11T22:13:04.329Z,16.63
2023-12-11T22:17:09.100Z,11.10
2023-12-11T22:21:13.812Z,16.70
2023-12-11T22:25:18.801Z,16.57
2023-12-11T22:29:26.303Z,15.07
2023-12-11T22:33:31.057Z,13.33
2023-12-11T22:37:36.293Z,11.63
2023-12-11T22:41:41.087Z,11.13
2023-12-11T22:45:48.539Z,12.27
2023-12-11T22:49:53.288Z,10.70
2023-12-11T22:53:58.198Z,13.80
2023-12-11T22:58:13.507Z,12.70
2023-12-11T23:02:23.785Z,12.47
2023-12-11T23:06:28.519Z,10.37
2023-12-11T23:10:33.335Z,13.13
2023-12-11T23:14:38.076Z,11.17
2023-12-11T23:18:45.557Z,12.50
2023-12-11T23:22:50.297Z,13.63
2023-12-11T23:26:55.069Z,12.53
2023-12-11T23:30:59.795Z,15.87
2023-12-11T23:35:08.149Z,13.27
2023-12-11T23:39:13.037Z,16.67
2023-12-11T23:43:17.916Z,11.97
2023-12-11T23:47:22.772Z,14.50
2023-12-11T23:51:30.244Z,15.97
2023-12-11T23:55:34.962Z,15.87
2023-12-11T23:59:40.067Z,14.40
